sensor_id;sensor_type;location;lat;lon;timestamp;pressure;altitude;pressure_sealevel;temperature;humidity
50087;BME280;35967;50.718;7.050;2023-05-20T00:08:28;101336.22;;;14.67;60.60
50087;BME280;35967;50.718;7.050;2023-05-20T00:18:31;101340.91;;;14.51;60.52
50087;BME280;35967;50.718;7.050;2023-05-20T00:28:35;101330.16;;;14.35;61.69
50087;BME280;35967;50.718;7.050;2023-05-20T00:38:38;101322.56;;;14.29;61.47
50087;BME280;35967;50.718;7.050;2023-05-20T00:48:43;101316.31;;;14.03;63.35
50087;BME280;35967;50.718;7.050;2023-05-20T00:58:46;101307.94;;;13.93;62.08
50087;BME280;35967;50.718;7.050;2023-05-20T01:08:51;101307.53;;;13.74;63.74
50087;BME280;35967;50.718;7.050;2023-05-20T01:18:54;101305.19;;;13.65;64.57
50087;BME280;35967;50.718;7.050;2023-05-20T01:29:00;101301.63;;;13.69;64.28
50087;BME280;35967;50.718;7.050;2023-05-20T01:39:05;101294.97;;;13.59;64.06
50087;BME280;35967;50.718;7.050;2023-05-20T01:49:10;101290.97;;;13.47;64.69
50087;BME280;35967;50.718;7.050;2023-05-20T01:59:13;101282.81;;;13.26;65.74
50087;BME280;35967;50.718;7.050;2023-05-20T02:09:18;101289.97;;;13.13;66.92
50087;BME280;35967;50.718;7.050;2023-05-20T02:19:21;101272.28;;;12.94;67.87
50087;BME280;35967;50.718;7.050;2023-05-20T02:29:26;101275.22;;;12.79;67.62
50087;BME280;35967;50.718;7.050;2023-05-20T02:39:29;101271.16;;;12.69;67.66
50087;BME280;35967;50.718;7.050;2023-05-20T02:49:34;101269.25;;;12.75;67.63
50087;BME280;35967;50.718;7.050;2023-05-20T02:59:37;101263.59;;;12.59;69.17
50087;BME280;35967;50.718;7.050;2023-05-20T03:09:41;101267.63;;;12.29;71.23
50087;BME280;35967;50.718;7.050;2023-05-20T03:19:46;101271.09;;;12.28;72.38
50087;BME280;35967;50.718;7.050;2023-05-20T03:29:50;101263.75;;;12.06;73.19
50087;BME280;35967;50.718;7.050;2023-05-20T03:39:55;101264.91;;;11.88;74.71
50087;BME280;35967;50.718;7.050;2023-05-20T03:50:00;101269.31;;;11.81;74.47
50087;BME280;35967;50.718;7.050;2023-05-20T04:00:06;101260.88;;;11.73;76.08
50087;BME280;35967;50.718;7.050;2023-05-20T04:10:32;101257.69;;;11.59;77.46
50087;BME280;35967;50.718;7.050;2023-05-20T04:20:35;101259.56;;;11.49;77.99
50087;BME280;35967;50.718;7.050;2023-05-20T04:30:39;101269.56;;;11.67;78.23
50087;BME280;35967;50.718;7.050;2023-05-20T04:40:43;101266.94;;;11.71;78.78
50087;BME280;35967;50.718;7.050;2023-05-20T04:50:48;101268.84;;;11.59;79.74
50087;BME280;35967;50.718;7.050;2023-05-20T05:00:52;101263.97;;;11.92;79.79
50087;BME280;35967;50.718;7.050;2023-05-20T05:10:57;101261.34;;;11.97;80.45
50087;BME280;35967;50.718;7.050;2023-05-20T05:21:01;101247.25;;;12.15;80.68
50087;BME280;35967;50.718;7.050;2023-05-20T05:31:07;101239.97;;;12.34;79.62
50087;BME280;35967;50.718;7.050;2023-05-20T05:41:11;101236.81;;;12.63;79.12
50087;BME280;35967;50.718;7.050;2023-05-20T05:51:15;101237.09;;;12.90;79.64
50087;BME280;35967;50.718;7.050;2023-05-20T06:01:21;101228.47;;;12.90;78.24
50087;BME280;35967;50.718;7.050;2023-05-20T06:11:25;101225.16;;;13.22;78.27
50087;BME280;35967;50.718;7.050;2023-05-20T06:21:30;101226.13;;;13.54;77.87
50087;BME280;35967;50.718;7.050;2023-05-20T06:31:35;101218.03;;;13.67;77.32
50087;BME280;35967;50.718;7.050;2023-05-20T06:41:38;101224.19;;;13.96;76.66
50087;BME280;35967;50.718;7.050;2023-05-20T06:51:45;101210.75;;;14.44;75.36
50087;BME280;35967;50.718;7.050;2023-05-20T07:01:48;101199.06;;;14.89;73.36
50087;BME280;35967;50.718;7.050;2023-05-20T07:11:53;101189.84;;;15.34;71.57
50087;BME280;35967;50.718;7.050;2023-05-20T07:21:56;101187.19;;;15.36;68.44
50087;BME280;35967;50.718;7.050;2023-05-20T07:32:17;101183.09;;;15.54;68.04
50087;BME280;35967;50.718;7.050;2023-05-20T07:42:20;101166.78;;;15.75;68.18
50087;BME280;35967;50.718;7.050;2023-05-20T07:52:30;101158.00;;;15.80;67.46
50087;BME280;35967;50.718;7.050;2023-05-20T08:02:54;101144.19;;;16.03;67.47
50087;BME280;35967;50.718;7.050;2023-05-20T08:13:06;101151.03;;;16.28;67.83
50087;BME280;35967;50.718;7.050;2023-05-20T08:23:09;101151.53;;;16.82;65.89
50087;BME280;35967;50.718;7.050;2023-05-20T08:33:14;101135.59;;;17.53;63.39
50087;BME280;35967;50.718;7.050;2023-05-20T08:43:18;101125.00;;;17.77;63.15
50087;BME280;35967;50.718;7.050;2023-05-20T08:53:23;101121.94;;;18.07;61.54
50087;BME280;35967;50.718;7.050;2023-05-20T09:03:26;101116.22;;;18.37;59.36
50087;BME280;35967;50.718;7.050;2023-05-20T09:13:32;101106.78;;;18.88;58.28
50087;BME280;35967;50.718;7.050;2023-05-20T09:23:35;101091.47;;;19.00;58.11
50087;BME280;35967;50.718;7.050;2023-05-20T09:33:39;101091.75;;;19.78;55.02
50087;BME280;35967;50.718;7.050;2023-05-20T09:43:43;101086.31;;;20.92;53.34
50087;BME280;35967;50.718;7.050;2023-05-20T09:53:50;101066.44;;;21.76;50.77
50087;BME280;35967;50.718;7.050;2023-05-20T10:03:53;101075.88;;;21.21;49.71
50087;BME280;35967;50.718;7.050;2023-05-20T10:14:12;101098.31;;;20.49;49.74
50087;BME280;35967;50.718;7.050;2023-05-20T10:24:28;101081.22;;;20.28;51.50
50087;BME280;35967;50.718;7.050;2023-05-20T10:34:44;101078.19;;;20.04;51.77
50087;BME280;35967;50.718;7.050;2023-05-20T10:44:47;101076.59;;;20.01;52.35
50087;BME280;35967;50.718;7.050;2023-05-20T10:54:55;101061.38;;;20.40;51.57
50087;BME280;35967;50.718;7.050;2023-05-20T11:04:59;101059.72;;;22.54;47.64
50087;BME280;35967;50.718;7.050;2023-05-20T11:15:07;101050.25;;;24.40;42.38
50087;BME280;35967;50.718;7.050;2023-05-20T11:25:13;101044.78;;;21.87;46.46
50087;BME280;35967;50.718;7.050;2023-05-20T11:35:22;101039.69;;;20.99;50.05
50087;BME280;35967;50.718;7.050;2023-05-20T11:45:26;101022.47;;;22.88;45.95
50087;BME280;35967;50.718;7.050;2023-05-20T11:55:32;101011.56;;;26.00;38.32
50087;BME280;35967;50.718;7.050;2023-05-20T12:05:35;101001.94;;;26.22;36.93
50087;BME280;35967;50.718;7.050;2023-05-20T12:15:39;100992.66;;;30.51;29.66
50087;BME280;35967;50.718;7.050;2023-05-20T12:25:43;101003.19;;;21.53;48.36
50087;BME280;35967;50.718;7.050;2023-05-20T12:35:49;100995.81;;;22.15;48.33
50087;BME280;35967;50.718;7.050;2023-05-20T12:45:53;100987.06;;;21.18;49.85
50087;BME280;35967;50.718;7.050;2023-05-20T12:55:58;100984.38;;;20.45;52.32
50087;BME280;35967;50.718;7.050;2023-05-20T13:06:03;100978.78;;;20.52;53.28
50087;BME280;35967;50.718;7.050;2023-05-20T13:16:07;100963.63;;;20.42;53.72
50087;BME280;35967;50.718;7.050;2023-05-20T13:26:11;100965.41;;;20.42;53.09
50087;BME280;35967;50.718;7.050;2023-05-20T13:36:15;100955.84;;;21.00;50.34
50087;BME280;35967;50.718;7.050;2023-05-20T13:46:18;100947.44;;;20.80;52.89
50087;BME280;35967;50.718;7.050;2023-05-20T13:56:23;100935.91;;;20.54;52.24
50087;BME280;35967;50.718;7.050;2023-05-20T14:06:28;100929.44;;;20.45;51.81
50087;BME280;35967;50.718;7.050;2023-05-20T14:16:34;100917.50;;;20.70;51.83
50087;BME280;35967;50.718;7.050;2023-05-20T14:26:37;100921.28;;;20.36;51.82
50087;BME280;35967;50.718;7.050;2023-05-20T14:36:41;100917.09;;;20.33;51.41
50087;BME280;35967;50.718;7.050;2023-05-20T14:46:44;100903.56;;;20.41;51.55
50087;BME280;35967;50.718;7.050;2023-05-20T14:56:49;100912.47;;;20.53;51.07
50087;BME280;35967;50.718;7.050;2023-05-20T15:06:53;100913.00;;;20.29;52.37
50087;BME280;35967;50.718;7.050;2023-05-20T15:16:57;100928.19;;;20.22;52.37
50087;BME280;35967;50.718;7.050;2023-05-20T15:27:00;100918.78;;;20.04;53.04
50087;BME280;35967;50.718;7.050;2023-05-20T15:37:05;100907.47;;;19.89;51.43
50087;BME280;35967;50.718;7.050;2023-05-20T15:47:08;100912.84;;;19.85;53.81
50087;BME280;35967;50.718;7.050;2023-05-20T15:57:13;100916.25;;;19.39;54.51
50087;BME280;35967;50.718;7.050;2023-05-20T16:07:16;100919.03;;;19.20;53.55
50087;BME280;35967;50.718;7.050;2023-05-20T16:17:20;100906.41;;;19.13;53.62
50087;BME280;35967;50.718;7.050;2023-05-20T16:27:23;100901.44;;;19.08;53.06
50087;BME280;35967;50.718;7.050;2023-05-20T16:37:28;100911.38;;;19.17;53.31
50087;BME280;35967;50.718;7.050;2023-05-20T16:47:31;100920.56;;;19.25;53.44
50087;BME280;35967;50.718;7.050;2023-05-20T16:57:36;100924.63;;;19.30;53.54
50087;BME280;35967;50.718;7.050;2023-05-20T17:07:39;100920.81;;;19.20;54.82
50087;BME280;35967;50.718;7.050;2023-05-20T17:17:44;100915.25;;;19.10;55.78
50087;BME280;35967;50.718;7.050;2023-05-20T17:27:47;100920.72;;;19.05;57.14
50087;BME280;35967;50.718;7.050;2023-05-20T17:37:52;100930.88;;;18.94;57.72
50087;BME280;35967;50.718;7.050;2023-05-20T17:47:56;100921.75;;;18.85;58.60
50087;BME280;35967;50.718;7.050;2023-05-20T17:58:00;100929.31;;;18.56;59.43
50087;BME280;35967;50.718;7.050;2023-05-20T18:08:04;100940.22;;;18.29;60.39
50087;BME280;35967;50.718;7.050;2023-05-20T18:18:09;100936.78;;;18.29;60.75
50087;BME280;35967;50.718;7.050;2023-05-20T18:28:13;100937.31;;;18.18;62.52
50087;BME280;35967;50.718;7.050;2023-05-20T18:38:17;100940.31;;;18.10;63.05
50087;BME280;35967;50.718;7.050;2023-05-20T18:48:21;100936.59;;;17.97;64.11
50087;BME280;35967;50.718;7.050;2023-05-20T18:58:29;100940.47;;;17.88;65.08
50087;BME280;35967;50.718;7.050;2023-05-20T19:08:32;100946.13;;;17.79;66.49
50087;BME280;35967;50.718;7.050;2023-05-20T19:18:37;100944.88;;;17.69;68.16
50087;BME280;35967;50.718;7.050;2023-05-20T19:28:40;100955.09;;;17.54;68.98
50087;BME280;35967;50.718;7.050;2023-05-20T19:38:44;100962.06;;;17.34;70.55
50087;BME280;35967;50.718;7.050;2023-05-20T19:48:48;100960.63;;;17.08;72.20
50087;BME280;35967;50.718;7.050;2023-05-20T19:58:52;100963.81;;;17.15;72.92
50087;BME280;35967;50.718;7.050;2023-05-20T20:08:55;100958.50;;;16.97;72.57
50087;BME280;35967;50.718;7.050;2023-05-20T20:19:00;100953.56;;;16.91;72.24
50087;BME280;35967;50.718;7.050;2023-05-20T20:29:03;100948.16;;;16.75;73.07
50087;BME280;35967;50.718;7.050;2023-05-20T20:39:07;100938.44;;;16.60;74.07
50087;BME280;35967;50.718;7.050;2023-05-20T20:49:20;100942.41;;;16.48;74.25
50087;BME280;35967;50.718;7.050;2023-05-20T20:59:25;100942.66;;;16.42;74.53
50087;BME280;35967;50.718;7.050;2023-05-20T21:09:27;100943.41;;;16.23;75.20
50087;BME280;35967;50.718;7.050;2023-05-20T21:19:32;100930.78;;;16.15;75.04
50087;BME280;35967;50.718;7.050;2023-05-20T21:29:35;100938.13;;;16.04;75.73
50087;BME280;35967;50.718;7.050;2023-05-20T21:39:42;100933.53;;;15.90;76.21
50087;BME280;35967;50.718;7.050;2023-05-20T21:49:45;100914.63;;;15.86;76.02
50087;BME280;35967;50.718;7.050;2023-05-20T21:59:50;100922.56;;;15.82;76.89
50087;BME280;35967;50.718;7.050;2023-05-20T22:09:53;100917.59;;;15.75;76.61
50087;BME280;35967;50.718;7.050;2023-05-20T22:19:58;100915.25;;;15.69;78.03
50087;BME280;35967;50.718;7.050;2023-05-20T22:30:02;100908.06;;;15.54;78.54
50087;BME280;35967;50.718;7.050;2023-05-20T22:40:09;100900.47;;;15.49;78.88
50087;BME280;35967;50.718;7.050;2023-05-20T22:50:12;100884.78;;;15.30;79.85
50087;BME280;35967;50.718;7.050;2023-05-20T23:00:17;100866.63;;;15.30;79.37
50087;BME280;35967;50.718;7.050;2023-05-20T23:10:20;100863.72;;;15.16;80.97
50087;BME280;35967;50.718;7.050;2023-05-20T23:20:26;100851.16;;;15.27;80.97
50087;BME280;35967;50.718;7.050;2023-05-20T23:30:30;100840.25;;;15.19;81.28
50087;BME280;35967;50.718;7.050;2023-05-20T23:40:35;100842.84;;;15.19;81.70
50087;BME280;35967;50.718;7.050;2023-05-20T23:50:38;100834.22;;;15.18;81.70
